Terminal Aerodrome Forecast
Issued by NWS Caribou, ME

Home | Current Version | Previous Version | Text Only | Print | Product List | Glossary On
Versions: 1 2 3 4 5 6 7 8 9 10 11 12 13 14 15
000
FTUS41 KCAR 292328
TAFBGR
TAF
KBGR 292328Z 3000/3024 20008KT P6SM SCT250
     FM301200 19007KT 1SM BR SCT001
     FM301400 19010KT P6SM FEW250
     FM301800 18013G20KT P6SM FEW008=

USA.gov is the U.S. government's official web portal to all federal, state and local government web resources and services.